Time;durP1;ratioP1;P1;durP2;ratioP2;P2;SDS_P1;SDS_P2;PMS_P1;PMS_P2;Temp;Humidity;BMP_temperature;BMP_pressure;BME280_temperature;BME280_humidity;BME280_pressure;Samples;Min_cycle;Max_cycle;Signal;HPM_P1;HPM_P2
2022/08/28 00:00:50;;;;;;;;;;;;;;;;;;2140611;27;19945;-47
2022/08/28 00:01:51;;;;;;;;;;;;;;;;;;2140283;27;20009;-48
2022/08/28 00:02:52;;;;;;;;;;;;;;;;;;2140390;27;20332;-48
2022/08/28 00:03:53;;;;;;;;;;;;;;;;;;2140331;27;19927;-50
2022/08/28 00:04:54;;;;;;;;;;;;;;;;;;2140422;27;19922;-47
2022/08/28 00:05:55;;;;;;;;;;;;;;;;;;2140276;27;19923;-47
2022/08/28 00:06:56;;;;;;;;;;;;;;;;;;2140318;27;19923;-47
2022/08/28 00:07:57;;;;;;;;;;;;;;;;;;2140347;27;19922;-47
2022/08/28 00:08:58;;;;;;;;;;;;;;;;;;2140466;27;20015;-47
2022/08/28 00:09:58;;;;;;;;;;;;;;;;;;2140336;27;19969;-49
2022/08/28 00:10:59;;;;;;;;;;;;;;;;;;2140131;27;20017;-47
2022/08/28 00:12:00;;;;;;;;;;;;;;;;;;2131584;27;20347;-49
2022/08/28 00:13:01;;;;;;;;;;;;;;;;;;2137037;27;20013;-47
2022/08/28 00:14:02;;;;;;;;;;;;;;;;;;2140506;27;19923;-46
2022/08/28 00:15:03;;;;;;;;;;;;;;;;;;2140262;27;20017;-45
2022/08/28 00:16:04;;;;;;;;;;;;;;;;;;2140459;27;20009;-45
2022/08/28 00:17:05;;;;;;;;;;;;;;;;;;2140282;27;19923;-46
2022/08/28 00:18:05;;;;;;;;;;;;;;;;;;2140226;27;20228;-47
2022/08/28 00:19:08;;;;;;;;;;;;;;;;;;2140425;27;19929;-44
2022/08/28 00:20:09;;;;;;;;;;;;;;;;;;2140264;27;20126;-44
2022/08/28 00:21:10;;;;;;;;;;;;;;;;;;2140090;27;19930;-45
2022/08/28 00:22:10;;;;;;;;;;;;;;;;;;2140290;27;19962;-45
2022/08/28 00:23:11;;;;;;;;;;;;;;;;;;2140303;27;19922;-45
2022/08/28 00:24:12;;;;;;;;;;;;;;;;;;2140187;27;19958;-45
2022/08/28 00:25:13;;;;;;;;;;;;;;;;;;2140276;27;20370;-45
2022/08/28 00:27:51;;;;;;;;;;;;;;;;;;2140181;27;19929;-45
2022/08/28 00:27:53;;;;;;;;;;;;;;;;;;2140161;27;20021;-45
2022/08/28 00:28:55;;;;;;;;;;;;;;;;;;2140190;27;19923;-47
2022/08/28 00:29:56;;;;;;;;;;;;;;;;;;2140389;27;20432;-46
2022/08/28 00:30:57;;;;;;;;;;;;;;;;;;2140259;27;19923;-45
2022/08/28 00:31:58;;;;;;;;;;;;;;;;;;2140268;27;19930;-45
2022/08/28 00:32:59;;;;;;;;;;;;;;;;;;2140751;27;19923;-46
2022/08/28 00:34:01;;;;;;;;;;;;;;;;;;2140244;27;19923;-45
2022/08/28 00:35:02;;;;;;;;;;;;;;;;;;2140417;27;19952;-44
2022/08/28 00:36:03;;;;;;;;;;;;;;;;;;2140288;27;20442;-46
2022/08/28 00:37:04;;;;;;;;;;;;;;;;;;2140185;27;20022;-46
2022/08/28 00:38:05;;;;;;;;;;;;;;;;;;2140274;27;19986;-45
2022/08/28 00:39:06;;;;;;;;;;;;;;;;;;2140311;27;20422;-45
2022/08/28 00:40:07;;;;;;;;;;;;;;;;;;2140134;27;20013;-46
2022/08/28 00:41:09;;;;;;;;;;;;;;;;;;2140247;27;19926;-45
2022/08/28 00:42:10;;;;;;;;;;;;;;;;;;2140417;27;20001;-47
2022/08/28 00:43:11;;;;;;;;;;;;;;;;;;2140077;27;19930;-48
2022/08/28 00:44:12;;;;;;;;;;;;;;;;;;2140168;27;19954;-47
2022/08/28 00:45:13;;;;;;;;;;;;;;;;;;2140194;27;20007;-47
2022/08/28 00:46:14;;;;;;;;;;;;;;;;;;2140020;27;20325;-47
2022/08/28 00:47:15;;;;;;;;;;;;;;;;;;2140206;27;20051;-46
2022/08/28 00:48:16;;;;;;;;;;;;;;;;;;2140679;27;20047;-45
2022/08/28 00:49:17;;;;;;;;;;;;;;;;;;2141775;27;20007;-46
2022/08/28 00:50:17;;;;;;;;;;;;;;;;;;2141906;27;20434;-46
2022/08/28 00:52:38;;;;;;;;;;;;;;;;;;2141838;27;19922;-46
2022/08/28 00:53:38;;;;;;;;;;;;;;;;;;2141603;27;20009;-46
2022/08/28 00:54:40;;;;;;;;;;;;;;;;;;2141586;27;19974;-46
2022/08/28 00:55:42;;;;;;;;;;;;;;;;;;2141632;27;20013;-46
2022/08/28 00:56:43;;;;;;;;;;;;;;;;;;2141729;27;20018;-46
2022/08/28 00:57:47;;;;;;;;;;;;;;;;;;2141536;27;20287;-46
2022/08/28 00:58:48;;;;;;;;;;;;;;;;;;2141824;27;19993;-46
2022/08/28 00:59:49;;;;;;;;;;;;;;;;;;2141589;27;19930;-47
2022/08/28 01:00:49;;;;;;;;;;;;;;;;;;2141650;27;20402;-46
2022/08/28 01:01:52;;;;;;;;;;;;;;;;;;2141644;27;19973;-46
2022/08/28 01:02:53;;;;;;;;;;;;;;;;;;2141697;27;19927;-46
2022/08/28 01:03:54;;;;;;;;;;;;;;;;;;2141822;27;19985;-44
2022/08/28 01:04:55;;;;;;;;;;;;;;;;;;2141531;27;20290;-46
2022/08/28 01:05:56;;;;;;;;;;;;;;;;;;2141765;27;19922;-45
2022/08/28 01:06:57;;;;;;;;;;;;;;;;;;2141455;27;20360;-44
2022/08/28 01:07:58;;;;;;;;;;;;;;;;;;2141617;27;19929;-44
2022/08/28 01:08:59;;;;;;;;;;;;;;;;;;2141557;27;19926;-47
2022/08/28 01:10:00;;;;;;;;;;;;;;;;;;2141552;27;19923;-45
2022/08/28 01:11:00;;;;;;;;;;;;;;;;;;2141175;27;20385;-45
2022/08/28 01:12:02;;;;;;;;;;;;;;;;;;2132975;27;19923;-46
2022/08/28 01:13:03;;;;;;;;;;;;;;;;;;2132935;27;19950;-45
2022/08/28 01:14:04;;;;;;;;;;;;;;;;;;2132868;27;20450;-45
2022/08/28 01:15:08;;;;;;;;;;;;;;;;;;2132837;27;19950;-46
2022/08/28 01:16:08;;;;;;;;;;;;;;;;;;2132765;27;20006;-46
2022/08/28 01:17:09;;;;;;;;;;;;;;;;;;2132898;27;20364;-46
2022/08/28 01:18:10;;;;;;;;;;;;;;;;;;2132901;27;20302;-48
2022/08/28 01:19:11;;;;;;;;;;;;;;;;;;2132944;27;19923;-47
2022/08/28 01:20:12;;;;;;;;;;;;;;;;;;2132852;27;20308;-46
2022/08/28 01:21:13;;;;;;;;;;;;;;;;;;2132934;27;19927;-46
2022/08/28 01:22:20;;;;;;;;;;;;;;;;;;2132829;27;19933;-46
2022/08/28 01:23:21;;;;;;;;;;;;;;;;;;2133012;27;19933;-47
2022/08/28 01:24:22;;;;;;;;;;;;;;;;;;2132811;27;19971;-45
2022/08/28 01:25:23;;;;;;;;;;;;;;;;;;2132899;27;19972;-45
2022/08/28 01:26:23;;;;;;;;;;;;;;;;;;2132848;27;20017;-45
2022/08/28 01:27:24;;;;;;;;;;;;;;;;;;2132731;27;19923;-44
2022/08/28 01:28:25;;;;;;;;;;;;;;;;;;2132734;27;19923;-44
2022/08/28 01:29:27;;;;;;;;;;;;;;;;;;2132787;27;19930;-44
2022/08/28 01:30:28;;;;;;;;;;;;;;;;;;2133023;27;19974;-45
2022/08/28 01:31:29;;;;;;;;;;;;;;;;;;2132669;27;20428;-46
2022/08/28 01:32:30;;;;;;;;;;;;;;;;;;2132785;27;20264;-44
2022/08/28 01:33:32;;;;;;;;;;;;;;;;;;2132694;27;19984;-44
2022/08/28 01:34:33;;;;;;;;;;;;;;;;;;2132846;27;20116;-45
2022/08/28 01:35:34;;;;;;;;;;;;;;;;;;2132846;27;19936;-45
2022/08/28 01:36:35;;;;;;;;;;;;;;;;;;2132712;27;19980;-44
2022/08/28 01:37:36;;;;;;;;;;;;;;;;;;2132729;27;19944;-44
2022/08/28 01:38:37;;;;;;;;;;;;;;;;;;2132662;27;19972;-46
2022/08/28 01:39:38;;;;;;;;;;;;;;;;;;2132754;27;19972;-45
2022/08/28 01:40:38;;;;;;;;;;;;;;;;;;2132588;27;19962;-45
2022/08/28 01:41:39;;;;;;;;;;;;;;;;;;2132688;27;19923;-46
2022/08/28 01:42:41;;;;;;;;;;;;;;;;;;2132657;27;20417;-45
2022/08/28 01:43:42;;;;;;;;;;;;;;;;;;2132803;27;20191;-45
2022/08/28 01:44:42;;;;;;;;;;;;;;;;;;2132677;27;20371;-46
2022/08/28 01:45:43;;;;;;;;;;;;;;;;;;2132872;27;19958;-45
2022/08/28 01:46:44;;;;;;;;;;;;;;;;;;2132465;27;20014;-45
2022/08/28 01:47:45;;;;;;;;;;;;;;;;;;2132708;27;19953;-46
2022/08/28 01:48:46;;;;;;;;;;;;;;;;;;2132769;27;20026;-45
2022/08/28 01:49:47;;;;;;;;;;;;;;;;;;2132574;27;19998;-46
2022/08/28 01:50:48;;;;;;;;;;;;;;;;;;2132630;27;19945;-45
2022/08/28 01:51:49;;;;;;;;;;;;;;;;;;2132539;27;20498;-45
2022/08/28 01:52:49;;;;;;;;;;;;;;;;;;2132554;27;20446;-45
2022/08/28 01:53:50;;;;;;;;;;;;;;;;;;2132741;27;19962;-46
2022/08/28 01:54:51;;;;;;;;;;;;;;;;;;2132716;27;20029;-44
2022/08/28 01:55:52;;;;;;;;;;;;;;;;;;2132472;27;20029;-45
2022/08/28 01:56:53;;;;;;;;;;;;;;;;;;2132694;27;20133;-45
2022/08/28 01:57:54;;;;;;;;;;;;;;;;;;2132709;27;20276;-45
2022/08/28 01:58:54;;;;;;;;;;;;;;;;;;2132092;27;20273;-46
2022/08/28 01:59:55;;;;;;;;;;;;;;;;;;2132486;27;19923;-45
2022/08/28 02:00:56;;;;;;;;;;;;;;;;;;2132593;27;20379;-45
2022/08/28 02:01:57;;;;;;;;;;;;;;;;;;2132623;27;19930;-45
2022/08/28 02:02:59;;;;;;;;;;;;;;;;;;2132321;27;19930;-45
2022/08/28 02:04:03;;;;;;;;;;;;;;;;;;2132728;27;20010;-45
2022/08/28 02:05:03;;;;;;;;;;;;;;;;;;2133861;27;19938;-44
2022/08/28 02:06:05;;;;;;;;;;;;;;;;;;2141202;27;19954;-45
2022/08/28 02:07:05;;;;;;;;;;;;;;;;;;2141177;27;20014;-45
2022/08/28 02:08:06;;;;;;;;;;;;;;;;;;2141095;27;19923;-46
2022/08/28 02:09:07;;;;;;;;;;;;;;;;;;2141345;27;19930;-46
2022/08/28 02:10:12;;;;;;;;;;;;;;;;;;2141134;27;20295;-44
2022/08/28 02:11:12;;;;;;;;;;;;;;;;;;2140859;27;20009;-44
2022/08/28 02:12:13;;;;;;;;;;;;;;;;;;2141186;27;19926;-44
2022/08/28 02:13:14;;;;;;;;;;;;;;;;;;2141284;27;19922;-45
2022/08/28 02:14:15;;;;;;;;;;;;;;;;;;2140990;27;20399;-44
2022/08/28 02:15:16;;;;;;;;;;;;;;;;;;2141217;27;19922;-47
2022/08/28 02:16:17;;;;;;;;;;;;;;;;;;2141078;27;19962;-45
2022/08/28 02:17:17;;;;;;;;;;;;;;;;;;2141254;27;20281;-46
2022/08/28 02:18:19;;;;;;;;;;;;;;;;;;2141053;27;19929;-46
2022/08/28 02:19:19;;;;;;;;;;;;;;;;;;2141226;27;19965;-46
2022/08/28 02:20:21;;;;;;;;;;;;;;;;;;2141089;27;19931;-46
2022/08/28 02:21:22;;;;;;;;;;;;;;;;;;2140995;27;19954;-46
2022/08/28 02:22:23;;;;;;;;;;;;;;;;;;2141164;27;19923;-46
2022/08/28 02:23:24;;;;;;;;;;;;;;;;;;2140935;27;19974;-46
2022/08/28 02:24:24;;;;;;;;;;;;;;;;;;2141145;27;20017;-46
2022/08/28 02:25:25;;;;;;;;;;;;;;;;;;2141002;27;19923;-47
2022/08/28 02:26:27;;;;;;;;;;;;;;;;;;2140935;27;19923;-46
2022/08/28 02:27:28;;;;;;;;;;;;;;;;;;2141000;27;20278;-46
2022/08/28 02:28:28;;;;;;;;;;;;;;;;;;2141189;27;19951;-46
2022/08/28 02:29:29;;;;;;;;;;;;;;;;;;2141023;27;19962;-46
2022/08/28 02:30:30;;;;;;;;;;;;;;;;;;2141095;27;20382;-46
2022/08/28 02:31:31;;;;;;;;;;;;;;;;;;2140922;27;19929;-47
2022/08/28 02:32:32;;;;;;;;;;;;;;;;;;2140941;27;20005;-47
2022/08/28 02:33:33;;;;;;;;;;;;;;;;;;2141065;27;20284;-47
2022/08/28 02:34:34;;;;;;;;;;;;;;;;;;2141003;27;20006;-46
2022/08/28 02:35:35;;;;;;;;;;;;;;;;;;2140958;27;20565;-46
2022/08/28 02:36:36;;;;;;;;;;;;;;;;;;2140925;27;19950;-48
2022/08/28 02:37:38;;;;;;;;;;;;;;;;;;2141023;27;19970;-46
2022/08/28 02:38:39;;;;;;;;;;;;;;;;;;2140892;27;20005;-45
2022/08/28 02:39:40;;;;;;;;;;;;;;;;;;2141087;27;20384;-46
2022/08/28 02:40:40;;;;;;;;;;;;;;;;;;2140944;27;20009;-46
2022/08/28 02:41:42;;;;;;;;;;;;;;;;;;2140843;27;19923;-46
2022/08/28 02:42:43;;;;;;;;;;;;;;;;;;2141122;27;19973;-45
2022/08/28 02:43:44;;;;;;;;;;;;;;;;;;2140925;27;19927;-45
2022/08/28 02:44:44;;;;;;;;;;;;;;;;;;2140965;27;20032;-46
2022/08/28 02:45:45;;;;;;;;;;;;;;;;;;2140967;27;20497;-47
2022/08/28 02:46:46;;;;;;;;;;;;;;;;;;2140987;27;19923;-47
2022/08/28 02:47:47;;;;;;;;;;;;;;;;;;2140914;27;19929;-46
2022/08/28 02:48:49;;;;;;;;;;;;;;;;;;2140977;27;19974;-46
2022/08/28 02:49:50;;;;;;;;;;;;;;;;;;2140908;27;20021;-46
2022/08/28 02:50:50;;;;;;;;;;;;;;;;;;2140867;27;20048;-46
2022/08/28 02:51:55;;;;;;;;;;;;;;;;;;2140879;27;19926;-46
2022/08/28 02:52:56;;;;;;;;;;;;;;;;;;2140858;27;20009;-46
2022/08/28 02:53:57;;;;;;;;;;;;;;;;;;2140855;27;20586;-48
2022/08/28 02:54:57;;;;;;;;;;;;;;;;;;2140886;27;20013;-46
2022/08/28 02:56:00;;;;;;;;;;;;;;;;;;2140974;27;19930;-46
2022/08/28 02:57:01;;;;;;;;;;;;;;;;;;2140686;27;19923;-46
2022/08/28 02:58:02;;;;;;;;;;;;;;;;;;2140990;27;19938;-46
2022/08/28 02:59:03;;;;;;;;;;;;;;;;;;2141019;27;20014;-45
2022/08/28 03:00:04;;;;;;;;;;;;;;;;;;2140793;27;20401;-44
2022/08/28 03:01:05;;;;;;;;;;;;;;;;;;2140738;27;20030;-44
2022/08/28 03:02:06;;;;;;;;;;;;;;;;;;2140461;27;19922;-44
2022/08/28 03:03:07;;;;;;;;;;;;;;;;;;2140850;27;19940;-45
2022/08/28 03:04:08;;;;;;;;;;;;;;;;;;2140790;27;20427;-45
2022/08/28 03:05:09;;;;;;;;;;;;;;;;;;2141108;27;19923;-44
2022/08/28 03:06:11;;;;;;;;;;;;;;;;;;2140742;27;20017;-44
2022/08/28 03:07:12;;;;;;;;;;;;;;;;;;2140784;27;20018;-44
2022/08/28 03:08:13;;;;;;;;;;;;;;;;;;2140668;27;19943;-44
2022/08/28 03:09:14;;;;;;;;;;;;;;;;;;2140799;27;19930;-43
2022/08/28 03:10:15;;;;;;;;;;;;;;;;;;2140912;27;19938;-43
2022/08/28 03:11:16;;;;;;;;;;;;;;;;;;2137456;27;20005;-47
2022/08/28 03:12:22;;;;;;;;;;;;;;;;;;2132171;27;20009;-46
2022/08/28 03:13:23;;;;;;;;;;;;;;;;;;2132266;27;20142;-46
2022/08/28 03:14:27;;;;;;;;;;;;;;;;;;2132253;27;19923;-47
2022/08/28 03:15:28;;;;;;;;;;;;;;;;;;2132002;27;19958;-46
2022/08/28 03:16:29;;;;;;;;;;;;;;;;;;2132326;27;20375;-47
2022/08/28 03:17:30;;;;;;;;;;;;;;;;;;2132088;27;19923;-50
2022/08/28 03:18:32;;;;;;;;;;;;;;;;;;2132000;27;19923;-46
2022/08/28 03:19:32;;;;;;;;;;;;;;;;;;2132073;27;19957;-47
2022/08/28 03:20:33;;;;;;;;;;;;;;;;;;2132010;27;19927;-47
2022/08/28 03:21:34;;;;;;;;;;;;;;;;;;2131867;27;20475;-46
2022/08/28 03:23:54;;;;;;;;;;;;;;;;;;2132023;27;19923;-46
2022/08/28 03:24:55;;;;;;;;;;;;;;;;;;2131932;27;19923;-46
2022/08/28 03:25:56;;;;;;;;;;;;;;;;;;2132087;27;19938;-46
2022/08/28 03:26:57;;;;;;;;;;;;;;;;;;2132009;27;20415;-47
2022/08/28 03:27:58;;;;;;;;;;;;;;;;;;2131866;27;19930;-46
2022/08/28 03:28:59;;;;;;;;;;;;;;;;;;2131944;27;20335;-46
2022/08/28 03:30:01;;;;;;;;;;;;;;;;;;2132375;27;19930;-45
2022/08/28 03:31:02;;;;;;;;;;;;;;;;;;2131894;27;19923;-46
2022/08/28 03:32:04;;;;;;;;;;;;;;;;;;2131982;27;19930;-44
2022/08/28 03:33:05;;;;;;;;;;;;;;;;;;2132217;27;19923;-43
2022/08/28 03:34:06;;;;;;;;;;;;;;;;;;2132064;27;19923;-43
2022/08/28 03:35:07;;;;;;;;;;;;;;;;;;2131967;27;20010;-44
2022/08/28 03:36:08;;;;;;;;;;;;;;;;;;2132057;27;19923;-44
2022/08/28 03:37:08;;;;;;;;;;;;;;;;;;2131792;27;20022;-43
2022/08/28 03:38:10;;;;;;;;;;;;;;;;;;2132063;27;19929;-45
2022/08/28 03:39:12;;;;;;;;;;;;;;;;;;2132125;27;19960;-47
2022/08/28 03:40:13;;;;;;;;;;;;;;;;;;2131909;27;20015;-47
2022/08/28 03:41:14;;;;;;;;;;;;;;;;;;2131957;27;19927;-47
2022/08/28 03:42:15;;;;;;;;;;;;;;;;;;2132001;27;20284;-46
2022/08/28 03:43:16;;;;;;;;;;;;;;;;;;2131944;27;20021;-46
2022/08/28 03:44:17;;;;;;;;;;;;;;;;;;2132000;27;19923;-47
2022/08/28 03:45:18;;;;;;;;;;;;;;;;;;2132166;27;19927;-47
2022/08/28 03:46:19;;;;;;;;;;;;;;;;;;2132148;27;19927;-46
2022/08/28 03:47:21;;;;;;;;;;;;;;;;;;2132030;27;19934;-48
2022/08/28 03:48:23;;;;;;;;;;;;;;;;;;2131944;27;19945;-46
2022/08/28 03:49:23;;;;;;;;;;;;;;;;;;2131906;27;20013;-46
2022/08/28 03:50:24;;;;;;;;;;;;;;;;;;2132042;27;19965;-46
2022/08/28 03:51:25;;;;;;;;;;;;;;;;;;2131786;27;19923;-46
2022/08/28 03:52:30;;;;;;;;;;;;;;;;;;2131926;27;19958;-46
2022/08/28 03:53:31;;;;;;;;;;;;;;;;;;2131875;27;20055;-46
2022/08/28 03:54:32;;;;;;;;;;;;;;;;;;2131898;27;20339;-46
2022/08/28 03:55:33;;;;;;;;;;;;;;;;;;2131771;27;20388;-47
2022/08/28 03:56:34;;;;;;;;;;;;;;;;;;2131715;27;19927;-45
2022/08/28 03:57:35;;;;;;;;;;;;;;;;;;2133714;27;19930;-47
2022/08/28 03:58:36;;;;;;;;;;;;;;;;;;2140550;27;19923;-46
2022/08/28 03:59:37;;;;;;;;;;;;;;;;;;2140521;27;20010;-47
2022/08/28 04:00:40;;;;;;;;;;;;;;;;;;2140377;27;19973;-45
2022/08/28 04:01:41;;;;;;;;;;;;;;;;;;2140345;27;20320;-46
2022/08/28 04:02:42;;;;;;;;;;;;;;;;;;2140365;27;19934;-47
2022/08/28 04:03:43;;;;;;;;;;;;;;;;;;2140385;27;20287;-46
2022/08/28 04:04:44;;;;;;;;;;;;;;;;;;2140304;27;19926;-46
2022/08/28 04:05:45;;;;;;;;;;;;;;;;;;2140625;27;20415;-46
2022/08/28 04:06:46;;;;;;;;;;;;;;;;;;2140294;27;19930;-46
2022/08/28 04:07:47;;;;;;;;;;;;;;;;;;2140451;27;20006;-46
2022/08/28 04:08:48;;;;;;;;;;;;;;;;;;2140586;27;20324;-44
2022/08/28 04:09:48;;;;;;;;;;;;;;;;;;2140741;27;19926;-46
2022/08/28 04:10:49;;;;;;;;;;;;;;;;;;2140308;27;20403;-46
2022/08/28 04:11:51;;;;;;;;;;;;;;;;;;2140196;27;19929;-47
2022/08/28 04:12:52;;;;;;;;;;;;;;;;;;2140457;27;20009;-45
2022/08/28 04:13:53;;;;;;;;;;;;;;;;;;2140544;27;20438;-45
2022/08/28 04:14:54;;;;;;;;;;;;;;;;;;2140490;27;19934;-46
2022/08/28 04:15:55;;;;;;;;;;;;;;;;;;2140429;27;20324;-45
2022/08/28 04:16:56;;;;;;;;;;;;;;;;;;2140227;27;20443;-47
2022/08/28 04:18:01;;;;;;;;;;;;;;;;;;2140568;27;19923;-46
2022/08/28 04:19:02;;;;;;;;;;;;;;;;;;2140267;27;20443;-46
2022/08/28 04:20:03;;;;;;;;;;;;;;;;;;2140347;27;19929;-48
2022/08/28 04:21:04;;;;;;;;;;;;;;;;;;2140277;27;20366;-46
2022/08/28 04:22:07;;;;;;;;;;;;;;;;;;2140007;27;20062;-48
2022/08/28 04:23:08;;;;;;;;;;;;;;;;;;2140480;27;20021;-44
2022/08/28 04:24:11;;;;;;;;;;;;;;;;;;2140406;27;19922;-44
2022/08/28 04:25:12;;;;;;;;;;;;;;;;;;2140194;27;20018;-44
2022/08/28 04:26:12;;;;;;;;;;;;;;;;;;2140308;27;20303;-43
2022/08/28 04:27:13;;;;;;;;;;;;;;;;;;2140237;27;19974;-43
2022/08/28 04:28:14;;;;;;;;;;;;;;;;;;2140133;27;20282;-44
2022/08/28 04:29:15;;;;;;;;;;;;;;;;;;2140290;27;20162;-44
2022/08/28 04:30:16;;;;;;;;;;;;;;;;;;2140233;27;20017;-44
2022/08/28 04:31:17;;;;;;;;;;;;;;;;;;2140085;27;19967;-46
2022/08/28 04:32:18;;;;;;;;;;;;;;;;;;2140219;27;19970;-45
2022/08/28 04:33:19;;;;;;;;;;;;;;;;;;2140348;27;19927;-43
2022/08/28 04:34:20;;;;;;;;;;;;;;;;;;2140342;27;19975;-44
2022/08/28 04:35:20;;;;;;;;;;;;;;;;;;2140236;27;20438;-44
2022/08/28 04:36:21;;;;;;;;;;;;;;;;;;2140120;27;19957;-43
2022/08/28 04:37:22;;;;;;;;;;;;;;;;;;2140256;27;19930;-43
2022/08/28 04:38:23;;;;;;;;;;;;;;;;;;2140249;27;19923;-44
2022/08/28 04:39:24;;;;;;;;;;;;;;;;;;2140361;27;20021;-44
2022/08/28 04:40:25;;;;;;;;;;;;;;;;;;2140201;27;19983;-43
2022/08/28 04:41:26;;;;;;;;;;;;;;;;;;2140099;27;19930;-43
2022/08/28 04:42:27;;;;;;;;;;;;;;;;;;2140186;27;20390;-43
2022/08/28 04:43:28;;;;;;;;;;;;;;;;;;2140241;27;19930;-43
2022/08/28 04:44:29;;;;;;;;;;;;;;;;;;2140341;27;20328;-44
2022/08/28 04:45:30;;;;;;;;;;;;;;;;;;2140107;27;19922;-44
2022/08/28 04:46:31;;;;;;;;;;;;;;;;;;2140065;27;19923;-43
2022/08/28 04:47:32;;;;;;;;;;;;;;;;;;2140208;27;19969;-44
2022/08/28 04:48:33;;;;;;;;;;;;;;;;;;2140107;27;20442;-45
2022/08/28 04:49:34;;;;;;;;;;;;;;;;;;2140056;27;19927;-44
2022/08/28 04:50:35;;;;;;;;;;;;;;;;;;2140123;27;20303;-43
2022/08/28 04:51:36;;;;;;;;;;;;;;;;;;2139976;27;19933;-44
2022/08/28 04:52:42;;;;;;;;;;;;;;;;;;2140218;27;19943;-44
2022/08/28 04:53:43;;;;;;;;;;;;;;;;;;2139831;27;20294;-43
2022/08/28 04:54:43;;;;;;;;;;;;;;;;;;2140286;27;19926;-43
2022/08/28 04:55:45;;;;;;;;;;;;;;;;;;2140050;27;20281;-44
2022/08/28 04:56:55;;;;;;;;;;;;;;;;;;2140066;27;19923;-44
2022/08/28 04:57:56;;;;;;;;;;;;;;;;;;2140241;27;20039;-44
2022/08/28 04:58:57;;;;;;;;;;;;;;;;;;2140009;27;19923;-45
2022/08/28 04:59:58;;;;;;;;;;;;;;;;;;2140150;27;20014;-43
2022/08/28 05:00:59;;;;;;;;;;;;;;;;;;2140054;27;20416;-44
2022/08/28 05:01:59;;;;;;;;;;;;;;;;;;2140517;27;20272;-47
2022/08/28 05:03:00;;;;;;;;;;;;;;;;;;2140107;27;20063;-47
2022/08/28 05:04:02;;;;;;;;;;;;;;;;;;2140704;27;19929;-47
2022/08/28 05:05:03;;;;;;;;;;;;;;;;;;2139964;27;20442;-49
2022/08/28 05:06:04;;;;;;;;;;;;;;;;;;2140129;27;20029;-46
2022/08/28 05:07:05;;;;;;;;;;;;;;;;;;2140075;27;19927;-47
2022/08/28 05:08:06;;;;;;;;;;;;;;;;;;2139978;27;19946;-46
2022/08/28 05:09:07;;;;;;;;;;;;;;;;;;2140259;27;20092;-47
2022/08/28 05:10:08;;;;;;;;;;;;;;;;;;2140071;27;20340;-46
2022/08/28 05:11:09;;;;;;;;;;;;;;;;;;2139971;27;19967;-47
2022/08/28 05:12:15;;;;;;;;;;;;;;;;;;2140020;27;19923;-46
2022/08/28 05:13:17;;;;;;;;;;;;;;;;;;2139976;27;19923;-47
2022/08/28 05:14:18;;;;;;;;;;;;;;;;;;2139945;27;20013;-49
2022/08/28 05:15:19;;;;;;;;;;;;;;;;;;2140309;27;20442;-47
2022/08/28 05:16:20;;;;;;;;;;;;;;;;;;2139959;27;19926;-46
2022/08/28 05:17:21;;;;;;;;;;;;;;;;;;2140089;27;20283;-46
2022/08/28 05:18:23;;;;;;;;;;;;;;;;;;2140210;27;19954;-47
2022/08/28 05:19:23;;;;;;;;;;;;;;;;;;2140391;27;19987;-47
2022/08/28 05:20:24;;;;;;;;;;;;;;;;;;2140024;27;19970;-46
2022/08/28 05:21:26;;;;;;;;;;;;;;;;;;2139955;27;19967;-47
2022/08/28 05:22:28;;;;;;;;;;;;;;;;;;2140132;27;20009;-47
2022/08/28 05:23:29;;;;;;;;;;;;;;;;;;2139913;27;20474;-47
2022/08/28 05:24:30;;;;;;;;;;;;;;;;;;2139983;27;20336;-47
2022/08/28 05:25:31;;;;;;;;;;;;;;;;;;2140513;27;19929;-46
2022/08/28 05:26:32;;;;;;;;;;;;;;;;;;2139831;27;20446;-47
2022/08/28 05:27:34;;;;;;;;;;;;;;;;;;2139888;27;20332;-47
2022/08/28 05:28:34;;;;;;;;;;;;;;;;;;2139862;27;20021;-47
2022/08/28 05:29:35;;;;;;;;;;;;;;;;;;2139891;27;20406;-46
2022/08/28 05:30:36;;;;;;;;;;;;;;;;;;2140338;27;20379;-43
2022/08/28 05:31:38;;;;;;;;;;;;;;;;;;2139874;27;19923;-43
2022/08/28 05:32:38;;;;;;;;;;;;;;;;;;2140071;27;19923;-47
2022/08/28 05:33:39;;;;;;;;;;;;;;;;;;2140101;27;19923;-46
2022/08/28 05:34:40;;;;;;;;;;;;;;;;;;2140941;27;19926;-46
2022/08/28 05:35:41;;;;;;;;;;;;;;;;;;2141343;27;20414;-47
2022/08/28 05:36:42;;;;;;;;;;;;;;;;;;2141794;27;19922;-44
2022/08/28 05:37:43;;;;;;;;;;;;;;;;;;2141423;27;20421;-43
2022/08/28 05:38:44;;;;;;;;;;;;;;;;;;2141369;27;20403;-44
2022/08/28 05:39:45;;;;;;;;;;;;;;;;;;2141315;27;20408;-43
2022/08/28 05:40:46;;;;;;;;;;;;;;;;;;2141511;27;19927;-43
2022/08/28 05:41:47;;;;;;;;;;;;;;;;;;2141302;27;19923;-44
2022/08/28 05:42:47;;;;;;;;;;;;;;;;;;2141395;27;19968;-44
2022/08/28 05:43:48;;;;;;;;;;;;;;;;;;2141314;27;19945;-44
2022/08/28 05:44:49;;;;;;;;;;;;;;;;;;2141621;27;19954;-43
2022/08/28 05:45:50;;;;;;;;;;;;;;;;;;2141409;27;19970;-45
2022/08/28 05:46:51;;;;;;;;;;;;;;;;;;2141293;27;19931;-43
2022/08/28 05:47:52;;;;;;;;;;;;;;;;;;2141233;27;19923;-45
2022/08/28 05:48:53;;;;;;;;;;;;;;;;;;2141459;27;19973;-43
2022/08/28 05:49:54;;;;;;;;;;;;;;;;;;2141182;27;20283;-44
2022/08/28 05:50:56;;;;;;;;;;;;;;;;;;2141130;27;20265;-44
2022/08/28 05:51:57;;;;;;;;;;;;;;;;;;2141222;27;20283;-44
2022/08/28 05:52:58;;;;;;;;;;;;;;;;;;2141207;27;20393;-43
2022/08/28 05:53:59;;;;;;;;;;;;;;;;;;2141701;27;19922;-43
2022/08/28 05:54:59;;;;;;;;;;;;;;;;;;2141299;27;20029;-43
2022/08/28 05:56:00;;;;;;;;;;;;;;;;;;2141383;27;19923;-45
2022/08/28 05:57:01;;;;;;;;;;;;;;;;;;2141060;27;19923;-44
2022/08/28 05:58:27;;;;;;;;;;;;;;;;;;2141478;27;19923;-43
2022/08/28 05:59:24;;;;;;;;;;;;;;;;;;2141190;27;20391;-43
2022/08/28 06:00:25;;;;;;;;;;;;;;;;;;2141354;27;20013;-43
2022/08/28 06:01:27;;;;;;;;;;;;;;;;;;2141098;27;19929;-43
2022/08/28 06:02:28;;;;;;;;;;;;;;;;;;2141537;27;19929;-43
2022/08/28 06:03:29;;;;;;;;;;;;;;;;;;2141417;27;20430;-46
2022/08/28 06:04:30;;;;;;;;;;;;;;;;;;2141322;27;19962;-45
2022/08/28 06:05:30;;;;;;;;;;;;;;;;;;2141288;27;19923;-48
2022/08/28 06:06:33;;;;;;;;;;;;;;;;;;2141209;27;19922;-43
2022/08/28 06:07:33;;;;;;;;;;;;;;;;;;2141183;27;20398;-43
2022/08/28 06:08:34;;;;;;;;;;;;;;;;;;2141060;27;19973;-45
2022/08/28 06:09:37;;;;;;;;;;;;;;;;;;2141121;27;19934;-43
2022/08/28 06:10:38;;;;;;;;;;;;;;;;;;2141149;27;19927;-43
2022/08/28 06:11:38;;;;;;;;;;;;;;;;;;2135610;27;19922;-49
2022/08/28 06:12:42;;;;;;;;;;;;;;;;;;2132534;27;19923;-50
2022/08/28 06:13:43;;;;;;;;;;;;;;;;;;2132694;27;19923;-47
2022/08/28 06:14:44;;;;;;;;;;;;;;;;;;2132589;27;20368;-47
2022/08/28 06:15:45;;;;;;;;;;;;;;;;;;2132588;27;19930;-49
2022/08/28 06:16:46;;;;;;;;;;;;;;;;;;2132595;27;19960;-47
2022/08/28 06:17:47;;;;;;;;;;;;;;;;;;2132425;27;19985;-47
2022/08/28 06:18:49;;;;;;;;;;;;;;;;;;2132603;27;20137;-47
2022/08/28 06:19:50;;;;;;;;;;;;;;;;;;2132451;27;20333;-47
2022/08/28 06:20:51;;;;;;;;;;;;;;;;;;2132606;27;19923;-47
2022/08/28 06:21:52;;;;;;;;;;;;;;;;;;2132305;27;20249;-47
2022/08/28 06:22:53;;;;;;;;;;;;;;;;;;2132430;27;19930;-47
2022/08/28 06:23:54;;;;;;;;;;;;;;;;;;2132480;27;19969;-47
2022/08/28 06:24:55;;;;;;;;;;;;;;;;;;2132770;27;20451;-45
2022/08/28 06:25:57;;;;;;;;;;;;;;;;;;2132378;27;20344;-44
2022/08/28 06:26:58;;;;;;;;;;;;;;;;;;2132344;27;19923;-44
2022/08/28 06:27:59;;;;;;;;;;;;;;;;;;2132353;27;20022;-44
2022/08/28 06:29:00;;;;;;;;;;;;;;;;;;2132624;27;19962;-43
2022/08/28 06:30:02;;;;;;;;;;;;;;;;;;2132564;27;20460;-44
2022/08/28 06:31:03;;;;;;;;;;;;;;;;;;2132299;27;20015;-45
2022/08/28 06:32:23;;;;;;;;;;;;;;;;;;2132542;27;19923;-44
2022/08/28 06:33:24;;;;;;;;;;;;;;;;;;2132288;27;19927;-44
2022/08/28 06:34:25;;;;;;;;;;;;;;;;;;2132547;27;19929;-44
2022/08/28 06:35:26;;;;;;;;;;;;;;;;;;2132414;27;19930;-44
2022/08/28 06:36:27;;;;;;;;;;;;;;;;;;2132447;27;20081;-45
2022/08/28 06:37:28;;;;;;;;;;;;;;;;;;2132466;27;20001;-44
2022/08/28 06:38:29;;;;;;;;;;;;;;;;;;2132931;27;19923;-48
2022/08/28 06:39:29;;;;;;;;;;;;;;;;;;2132377;27;19950;-47
2022/08/28 06:40:30;;;;;;;;;;;;;;;;;;2132503;27;20329;-49
2022/08/28 06:41:32;;;;;;;;;;;;;;;;;;2132398;27;20022;-47
2022/08/28 06:42:32;;;;;;;;;;;;;;;;;;2132279;27;19923;-49
2022/08/28 06:43:33;;;;;;;;;;;;;;;;;;2132541;27;20101;-47
2022/08/28 06:44:36;;;;;;;;;;;;;;;;;;2132381;27;19927;-48
2022/08/28 06:45:37;;;;;;;;;;;;;;;;;;2132254;27;19966;-48
2022/08/28 06:46:38;;;;;;;;;;;;;;;;;;2136419;27;20386;-47
2022/08/28 06:47:39;;;;;;;;;;;;;;;;;;2140901;27;20025;-47
2022/08/28 06:48:39;;;;;;;;;;;;;;;;;;2140818;27;19927;-48
2022/08/28 06:49:40;;;;;;;;;;;;;;;;;;2140911;27;19923;-48
2022/08/28 06:50:41;;;;;;;;;;;;;;;;;;2141030;27;19958;-48
2022/08/28 06:51:42;;;;;;;;;;;;;;;;;;2140887;27;19923;-46
2022/08/28 06:52:43;;;;;;;;;;;;;;;;;;2141102;27;19923;-48
2022/08/28 06:53:44;;;;;;;;;;;;;;;;;;2140843;27;19937;-47
2022/08/28 06:54:45;;;;;;;;;;;;;;;;;;2140939;27;19943;-49
2022/08/28 06:55:56;;;;;;;;;;;;;;;;;;2140869;27;19929;-47
2022/08/28 06:56:57;;;;;;;;;;;;;;;;;;2140775;27;20025;-47
2022/08/28 06:57:58;;;;;;;;;;;;;;;;;;2140786;27;19923;-47
2022/08/28 06:58:59;;;;;;;;;;;;;;;;;;2141218;27;20359;-48
2022/08/28 07:00:00;;;;;;;;;;;;;;;;;;2140760;27;19967;-49
2022/08/28 07:01:01;;;;;;;;;;;;;;;;;;2140922;27;19923;-51
2022/08/28 07:02:03;;;;;;;;;;;;;;;;;;2141058;27;20009;-44